Time;durP1;ratioP1;P1;durP2;ratioP2;P2;SDS_P1;SDS_P2;PMS_P1;PMS_P2;Temp;Humidity;BMP_temperature;BMP_pressure;BME280_temperature;BME280_humidity;BME280_pressure;Samples;Min_cycle;Max_cycle;Signal;HPM_P1;HPM_P2
2021/08/29 00:01:01;;;;;;;15.03;9.48;;;;;;;16.61;100.00;100597.46;1742809;81;20979;-47
2021/08/29 00:03:27;;;;;;;12.37;9.98;;;;;;;16.60;100.00;100600.98;1738346;81;21015;-47
2021/08/29 00:05:53;;;;;;;13.48;10.38;;;;;;;16.57;100.00;100603.73;1746560;81;21023;-51
2021/08/29 00:08:20;;;;;;;15.03;10.75;;;;;;;16.55;100.00;100611.23;1744824;81;21107;-50
2021/08/29 00:10:46;;;;;;;19.12;10.80;;;;;;;16.54;100.00;100610.84;1785572;79;21406;-48
2021/08/29 00:13:15;;;;;;;14.70;10.25;;;;;;;16.52;100.00;100609.58;1777388;79;21398;-48
2021/08/29 00:15:41;;;;;;;19.17;11.12;;;;;;;16.50;100.00;100614.02;1776548;78;21509;-47
2021/08/29 00:18:07;;;;;;;21.93;11.20;;;;;;;16.47;100.00;100619.38;1755398;80;21588;-48
2021/08/29 00:20:34;;;;;;;15.55;11.38;;;;;;;16.44;100.00;100616.89;1786058;79;21104;-49
2021/08/29 00:23:00;;;;;;;16.97;12.00;;;;;;;16.43;100.00;100617.80;1746544;79;20974;-51
2021/08/29 00:25:28;;;;;;;15.23;10.78;;;;;;;16.41;100.00;100618.33;1779433;78;20927;-50
2021/08/29 00:27:55;;;;;;;21.25;12.00;;;;;;;16.41;100.00;100618.33;1786225;78;20971;-49
2021/08/29 00:30:22;;;;;;;13.72;10.63;;;;;;;16.39;100.00;100617.06;1786884;79;21011;-48
2021/08/29 00:32:48;;;;;;;18.23;10.90;;;;;;;16.40;100.00;100617.93;1785432;79;21124;-49
2021/08/29 00:35:15;;;;;;;13.55;9.60;;;;;;;16.42;100.00;100614.80;1783550;79;20991;-50
2021/08/29 00:37:42;;;;;;;13.35;9.58;;;;;;;16.43;100.00;100611.27;1782021;79;21003;-49
2021/08/29 00:40:12;;;;;;;15.88;9.25;;;;;;;16.43;100.00;100613.88;1786271;79;21007;-50
2021/08/29 00:42:39;;;;;;;16.42;10.32;;;;;;;16.42;100.00;100619.58;1754803;80;20983;-47
2021/08/29 00:45:07;;;;;;;11.57;10.13;;;;;;;16.42;100.00;100611.75;1767526;79;21225;-48
2021/08/29 00:47:35;;;;;;;16.48;11.38;;;;;;;16.41;100.00;100617.02;1780536;78;20928;-49
2021/08/29 00:50:06;;;;;;;18.80;12.15;;;;;;;16.39;100.00;100619.67;1778465;80;20885;-51
2021/08/29 00:52:40;;;;;;;35.80;11.05;;;;;;;16.36;100.00;100612.83;1778020;80;20947;-49
2021/08/29 00:55:09;;;;;;;21.20;11.07;;;;;;;16.36;100.00;100613.27;1751837;80;21007;-48
2021/08/29 00:57:42;;;;;;;19.85;9.43;;;;;;;16.38;100.00;100616.67;1769148;80;21156;-48
2021/08/29 01:00:11;;;;;;;14.38;9.90;;;;;;;16.38;100.00;100612.75;1779745;79;20952;-48
2021/08/29 01:02:38;;;;;;;15.80;9.78;;;;;;;16.37;100.00;100613.67;1779975;80;20967;-49
2021/08/29 01:05:12;;;;;;;12.58;9.48;;;;;;;16.38;100.00;100620.59;1775675;79;20912;-48
2021/08/29 01:08:00;;;;;;;17.60;10.85;;;;;;;16.38;100.00;100619.28;1748005;80;21046;-51
2021/08/29 01:10:30;;;;;;;20.48;11.25;;;;;;;16.37;100.00;100613.67;1778665;79;21121;-46
2021/08/29 01:12:57;;;;;;;14.00;10.95;;;;;;;16.36;100.00;100623.28;1780650;79;21002;-47
2021/08/29 01:15:27;;;;;;;13.00;11.57;;;;;;;16.35;100.00;100617.66;1776546;79;21051;-47
2021/08/29 01:17:57;;;;;;;26.17;16.52;;;;;;;16.34;100.00;100607.27;1779786;80;20979;-48
2021/08/29 01:20:48;;;;;;;21.57;13.93;;;;;;;16.33;100.00;100610.34;1778165;80;20999;-49
2021/08/29 01:23:14;;;;;;;19.27;13.30;;;;;;;16.34;100.00;100612.48;1774551;79;21815;-48
2021/08/29 01:25:46;;;;;;;14.98;12.75;;;;;;;16.31;100.00;100607.39;1773154;79;20955;-47
2021/08/29 01:28:15;;;;;;;15.60;11.80;;;;;;;16.28;100.00;100605.73;1777620;80;22177;-49
2021/08/29 01:30:43;;;;;;;12.25;11.00;;;;;;;16.25;100.00;100605.03;1779978;80;21027;-50
2021/08/29 01:33:09;;;;;;;16.80;11.90;;;;;;;16.25;100.00;100606.34;1778714;80;21078;-49
2021/08/29 01:35:38;;;;;;;16.25;10.23;;;;;;;16.22;100.00;100612.52;1776391;79;21403;-50
2021/08/29 01:38:08;;;;;;;19.23;11.15;;;;;;;16.20;100.00;100613.04;1778991;80;20943;-49
2021/08/29 01:40:35;;;;;;;15.08;11.12;;;;;;;16.18;100.00;100607.89;1751596;80;20923;-48
2021/08/29 01:43:02;;;;;;;18.73;12.20;;;;;;;16.17;100.00;100605.33;1752491;80;21567;-48
2021/08/29 01:45:29;;;;;;;12.50;11.20;;;;;;;16.15;100.00;100612.38;1777241;79;20956;-49
2021/08/29 01:47:55;;;;;;;15.70;11.12;;;;;;;16.13;100.00;100609.81;1749106;80;21078;-49
2021/08/29 01:50:24;;;;;;;13.78;10.08;;;;;;;16.09;100.00;100607.80;1753235;80;20991;-50
2021/08/29 01:52:52;;;;;;;16.48;10.40;;;;;;;16.08;100.00;100607.41;1752517;80;21011;-51
2021/08/29 01:55:20;;;;;;;11.22;9.95;;;;;;;16.06;100.00;100598.78;1715819;80;20971;-48
2021/08/29 01:57:51;;;;;;;11.85;10.23;;;;;;;16.06;100.00;100597.92;1723716;82;21005;-48
2021/08/29 02:00:20;;;;;;;17.82;10.63;;;;;;;16.05;100.00;100601.00;1751327;80;21108;-49
2021/08/29 02:02:46;;;;;;;17.42;11.30;;;;;;;16.04;100.00;100599.30;1752535;80;21018;-48
2021/08/29 02:05:13;;;;;;;11.73;10.53;;;;;;;16.03;100.00;100594.95;1757433;80;20992;-50
2021/08/29 02:07:46;;;;;;;20.57;11.08;;;;;;;16.02;100.00;100589.34;1761711;80;21110;-47
2021/08/29 02:10:24;;;;;;;15.98;9.95;;;;;;;16.02;100.00;100591.95;1751587;80;20971;-49
2021/08/29 02:13:05;;;;;;;24.10;11.18;;;;;;;16.00;100.00;100588.55;1753376;80;21059;-51
2021/08/29 02:15:36;;;;;;;11.60;10.40;;;;;;;15.99;100.00;100593.38;1718988;81;21006;-49
2021/08/29 02:18:09;;;;;;;10.20;9.23;;;;;;;15.96;100.00;100593.50;1751708;80;20939;-47
2021/08/29 02:20:37;;;;;;;15.70;10.28;;;;;;;15.93;100.00;100596.23;1754033;80;21560;-50
2021/08/29 02:23:04;;;;;;;15.63;11.35;;;;;;;15.88;100.00;100597.71;1717340;82;21541;-48
2021/08/29 02:25:30;;;;;;;19.35;10.93;;;;;;;15.84;100.00;100593.96;1751020;80;21715;-49
2021/08/29 02:27:58;;;;;;;11.90;10.48;;;;;;;15.80;100.00;100590.61;1752766;81;21556;-49
2021/08/29 02:30:25;;;;;;;14.20;10.98;;;;;;;15.76;100.00;100587.25;1752318;80;21022;-49
2021/08/29 02:32:54;;;;;;;14.10;10.80;;;;;;;15.74;100.00;100592.98;1749693;80;20974;-51
2021/08/29 02:35:22;;;;;;;16.12;10.70;;;;;;;15.71;100.00;100600.94;1712558;82;21662;-51
2021/08/29 02:37:50;;;;;;;16.67;10.10;;;;;;;15.71;100.00;100594.88;1752770;81;20939;-51
2021/08/29 02:40:16;;;;;;;13.78;10.38;;;;;;;15.70;100.00;100597.93;1724648;80;21022;-50
2021/08/29 02:42:43;;;;;;;10.93;9.65;;;;;;;15.70;100.00;100595.80;1753938;81;21485;-49
2021/08/29 02:45:12;;;;;;;24.77;10.05;;;;;;;15.69;100.00;100600.14;1751494;80;21021;-51
2021/08/29 02:47:39;;;;;;;20.12;10.85;;;;;;;15.69;100.00;100593.63;1762498;80;21545;-51
2021/08/29 02:50:08;;;;;;;14.25;10.55;;;;;;;15.68;100.00;100587.17;1772594;79;21009;-50
2021/08/29 02:52:39;;;;;;;18.32;10.65;;;;;;;15.67;100.00;100590.22;1776037;79;20960;-50
2021/08/29 02:55:07;;;;;;;21.65;9.95;;;;;;;15.64;100.00;100582.05;1775216;79;21557;-50
2021/08/29 02:57:35;;;;;;;11.00;9.83;;;;;;;15.64;100.00;100588.56;1767579;80;21080;-47
2021/08/29 03:00:21;;;;;;;10.72;9.58;;;;;;;15.63;100.00;100583.42;1777020;79;20921;-46
2021/08/29 03:02:52;;;;;;;11.20;9.33;;;;;;;15.62;100.00;100586.94;1716883;82;20987;-49
2021/08/29 03:05:20;;;;;;;11.50;9.53;;;;;;;15.61;100.00;100589.16;1743570;81;21110;-52
2021/08/29 03:07:48;;;;;;;14.55;10.63;;;;;;;15.58;100.00;100588.80;1753886;80;20969;-50
2021/08/29 03:10:15;;;;;;;12.37;10.30;;;;;;;15.55;100.00;100588.09;1769658;79;20964;-50
2021/08/29 03:12:43;;;;;;;11.55;10.30;;;;;;;15.54;100.00;100597.66;1769727;79;20996;-46
2021/08/29 03:15:30;;;;;;;10.58;9.48;;;;;;;15.49;100.00;100596.52;1759604;79;21147;-50
2021/08/29 03:17:57;;;;;;;14.87;10.18;;;;;;;15.49;100.00;100595.67;1755773;80;21498;-51
2021/08/29 03:20:26;;;;;;;15.25;9.30;;;;;;;15.50;100.00;100596.07;1772140;80;20943;-49
2021/08/29 03:22:53;;;;;;;12.00;10.55;;;;;;;15.50;100.00;100597.38;1744862;80;21489;-51
2021/08/29 03:25:20;;;;;;;12.30;9.60;;;;;;;15.50;100.00;100603.90;1778704;79;21649;-48
2021/08/29 03:27:47;;;;;;;13.30;9.75;;;;;;;15.50;100.00;100607.34;1777647;79;21142;-48
2021/08/29 03:30:14;;;;;;;14.15;9.78;;;;;;;15.53;100.00;100603.78;1775712;79;21546;-48
2021/08/29 03:32:42;;;;;;;13.62;9.58;;;;;;;15.57;100.00;100604.53;1753196;79;20988;-51
2021/08/29 03:35:12;;;;;;;17.80;10.53;;;;;;;15.60;100.00;100609.16;1763276;79;21006;-51
2021/08/29 03:37:41;;;;;;;11.03;9.48;;;;;;;15.65;100.00;100610.30;1752181;79;20968;-50
2021/08/29 03:40:10;;;;;;;11.97;9.78;;;;;;;15.70;100.00;100612.28;1765620;79;21246;-51
2021/08/29 03:42:37;;;;;;;14.68;10.00;;;;;;;15.74;100.00;100608.64;1743983;80;21981;-49
2021/08/29 03:45:08;;;;;;;16.85;10.05;;;;;;;15.80;100.00;100608.44;1769024;79;21011;-48
2021/08/29 03:47:39;;;;;;;14.70;10.05;;;;;;;15.86;100.00;100605.19;1780752;79;21324;-50
2021/08/29 03:50:08;;;;;;;15.85;10.38;;;;;;;15.91;100.00;100604.59;1739161;79;21034;-48
2021/08/29 03:52:38;;;;;;;14.90;10.43;;;;;;;15.98;100.00;100605.20;1771918;79;21986;-49
2021/08/29 03:55:07;;;;;;;17.20;9.75;;;;;;;16.04;100.00;100599.73;1772878;79;20917;-48
2021/08/29 03:57:36;;;;;;;17.85;10.28;;;;;;;16.14;100.00;100593.70;1776648;79;20947;-48
2021/08/29 04:00:05;;;;;;;11.28;10.10;;;;;;;16.24;100.00;100595.03;1746070;80;20994;-52
2021/08/29 04:02:34;;;;;;;16.30;10.45;;;;;;;16.31;100.00;100587.36;1762128;79;20916;-51
2021/08/29 04:05:03;;;;;;;15.32;10.98;;;;;;;16.41;100.00;100585.67;1737544;81;21097;-50
2021/08/29 04:07:31;;;;;;;14.28;10.88;;;;;;;16.51;100.00;100589.59;1755355;79;21311;-50
2021/08/29 04:10:07;;;;;;;11.38;10.20;;;;;;;16.61;100.00;100588.31;1753722;79;21493;-49
2021/08/29 04:12:39;;;;;;;14.25;10.98;;;;;;;16.73;100.00;100593.93;1751154;81;20940;-48
2021/08/29 04:15:25;;;;;;;16.35;11.03;;;;;;;16.88;100.00;100584.14;1739348;79;21498;-50
2021/08/29 04:17:52;;;;;;;13.25;10.53;;;;;;;17.04;100.00;100580.44;1740091;81;21775;-49
2021/08/29 04:20:19;;;;;;;11.83;10.63;;;;;;;17.21;100.00;100587.53;1740207;81;21036;-50
2021/08/29 04:22:47;;;;;;;17.02;10.38;;;;;;;17.37;100.00;100583.77;1755051;79;20923;-51
2021/08/29 04:25:15;;;;;;;15.98;10.82;;;;;;;17.54;100.00;100590.02;1758976;79;21022;-51
2021/08/29 04:27:44;;;;;;;15.13;10.82;;;;;;;17.72;100.00;100588.31;1768562;79;21433;-48
2021/08/29 04:30:12;;;;;;;15.18;11.50;;;;;;;17.89;100.00;100585.38;1734090;81;21817;-51
2021/08/29 04:32:41;;;;;;;11.80;10.25;;;;;;;18.07;100.00;100583.69;1742460;81;21071;-50
2021/08/29 04:35:09;;;;;;;12.98;10.45;;;;;;;18.22;100.00;100579.48;1720829;81;22310;-49
2021/08/29 04:37:38;;;;;;;15.28;11.48;;;;;;;18.37;100.00;100573.95;1678807;82;21067;-51
2021/08/29 04:40:08;;;;;;;13.70;10.50;;;;;;;18.55;100.00;100576.11;1714334;82;21011;-50
2021/08/29 04:42:37;;;;;;;15.38;11.30;;;;;;;18.72;100.00;100576.59;1706230;82;21796;-47
2021/08/29 04:45:05;;;;;;;13.95;10.35;;;;;;;18.88;99.41;100566.16;1704963;82;21518;-52
2021/08/29 04:47:32;;;;;;;12.78;11.28;;;;;;;19.00;98.47;100563.40;1679890;83;20972;-48
2021/08/29 04:49:59;;;;;;;19.27;11.00;;;;;;;19.16;97.61;100564.75;1729992;81;21034;-47
2021/08/29 04:52:26;;;;;;;12.93;9.85;;;;;;;19.30;95.78;100568.40;1733082;81;20928;-48
2021/08/29 04:54:55;;;;;;;10.70;9.73;;;;;;;19.42;94.52;100561.64;1734039;81;22385;-51
2021/08/29 04:57:21;;;;;;;13.43;10.78;;;;;;;19.52;93.61;100557.12;1731493;82;21015;-51
2021/08/29 04:59:48;;;;;;;19.60;10.93;;;;;;;19.62;92.46;100554.84;1738004;81;21022;-51
2021/08/29 05:02:15;;;;;;;11.55;10.15;;;;;;;19.69;91.78;100554.05;1742582;81;20920;-51
2021/08/29 05:04:44;;;;;;;11.20;9.80;;;;;;;19.82;91.44;100551.59;1737358;80;21015;-49
2021/08/29 05:07:11;;;;;;;18.55;10.00;;;;;;;19.98;90.69;100544.20;1737944;80;23026;-49
2021/08/29 05:09:38;;;;;;;10.38;9.05;;;;;;;20.14;89.96;100542.86;1711916;82;21533;-46
2021/08/29 05:12:06;;;;;;;11.80;9.88;;;;;;;20.24;88.17;100540.07;1710943;82;21589;-49
2021/08/29 05:14:33;;;;;;;12.63;10.15;;;;;;;20.31;87.23;100533.52;1739823;81;20999;-48
2021/08/29 05:17:00;;;;;;;11.33;9.68;;;;;;;20.38;86.69;100530.06;1701429;82;21596;-50
2021/08/29 05:19:27;;;;;;;12.15;9.33;;;;;;;20.45;86.20;100529.25;1734698;81;21842;-50
2021/08/29 05:21:56;;;;;;;10.70;9.60;;;;;;;20.44;85.42;100531.02;1733273;80;20991;-49
2021/08/29 05:24:40;;;;;;;12.15;9.40;;;;;;;20.47;85.62;100536.57;1730483;80;21455;-47
2021/08/29 05:27:09;;;;;;;14.70;10.48;;;;;;;20.53;84.97;100533.57;1737700;80;21035;-48
2021/08/29 05:29:36;;;;;;;15.63;9.10;;;;;;;20.55;83.32;100530.86;1738486;80;20866;-52
2021/08/29 05:32:05;;;;;;;16.57;10.13;;;;;;;20.53;82.92;100529.63;1734128;81;21136;-49
2021/08/29 05:34:33;;;;;;;12.15;9.83;;;;;;;20.48;82.17;100522.03;1735500;80;21494;-49
2021/08/29 05:36:59;;;;;;;13.65;9.83;;;;;;;20.45;81.09;100522.67;1738042;80;21051;-49
2021/08/29 05:39:27;;;;;;;14.20;9.65;;;;;;;20.40;81.38;100521.63;1741084;82;20996;-49
2021/08/29 05:41:53;;;;;;;13.08;10.10;;;;;;;20.38;81.75;100523.50;1739598;80;21004;-50
2021/08/29 05:44:34;;;;;;;14.18;10.70;;;;;;;20.37;81.35;100523.98;1739235;82;21089;-51
2021/08/29 05:47:00;;;;;;;11.65;10.53;;;;;;;20.38;81.53;100514.30;1738802;80;21070;-51
2021/08/29 05:49:30;;;;;;;17.27;10.98;;;;;;;20.39;82.03;100515.98;1759016;79;21007;-52
2021/08/29 05:51:56;;;;;;;12.00;10.23;;;;;;;20.42;81.23;100504.45;1753764;80;21050;-50
2021/08/29 05:54:23;;;;;;;16.67;9.65;;;;;;;20.46;81.54;100504.20;1775866;79;20983;-52
2021/08/29 05:56:50;;;;;;;15.75;10.03;;;;;;;20.52;81.96;100505.59;1773435;79;21110;-52
2021/08/29 05:59:16;;;;;;;12.05;10.45;;;;;;;20.60;81.57;100505.14;1777819;79;21002;-52
2021/08/29 06:01:43;;;;;;;12.10;9.55;;;;;;;20.66;81.37;100505.63;1760663;79;20921;-51
2021/08/29 06:04:09;;;;;;;9.85;8.85;;;;;;;20.76;80.45;100509.00;1776740;79;21000;-50
2021/08/29 06:06:40;;;;;;;15.78;9.75;;;;;;;20.89;80.56;100509.13;1770899;79;20964;-51
2021/08/29 06:09:07;;;;;;;20.05;11.55;;;;;;;21.03;80.50;100499.07;1763881;79;21082;-48
2021/08/29 06:11:35;;;;;;;21.35;11.60;;;;;;;21.16;78.73;100501.33;1747531;79;20923;-53
2021/08/29 06:14:03;;;;;;;16.90;10.28;;;;;;;21.27;78.01;100498.48;1765984;79;22534;-49
2021/08/29 06:16:30;;;;;;;19.35;9.45;;;;;;;21.39;77.41;100489.83;1755867;80;21022;-49
2021/08/29 06:18:57;;;;;;;11.93;9.25;;;;;;;21.52;77.20;100489.89;1774386;79;20935;-46
2021/08/29 06:21:24;;;;;;;14.53;9.93;;;;;;;21.64;75.04;100485.63;1762362;80;21110;-48
2021/08/29 06:23:51;;;;;;;11.68;9.45;;;;;;;21.73;73.96;100491.63;1778112;79;20939;-48
2021/08/29 06:26:20;;;;;;;16.17;10.00;;;;;;;21.79;73.59;100493.03;1750116;80;21548;-48
2021/08/29 06:28:59;;;;;;;19.10;10.85;;;;;;;21.88;73.51;100495.05;1744041;81;21023;-48
2021/08/29 06:31:31;;;;;;;13.35;10.78;;;;;;;21.99;73.46;100492.20;1752539;80;20947;-47
2021/08/29 06:34:16;;;;;;;14.90;9.40;;;;;;;22.10;72.33;100489.22;1779844;78;21938;-51
2021/08/29 06:36:44;;;;;;;10.43;9.13;;;;;;;22.24;72.67;100480.84;1779955;80;21177;-50
2021/08/29 06:39:13;;;;;;;16.10;9.38;;;;;;;22.38;72.80;100475.95;1780048;80;20916;-51
2021/08/29 06:41:40;;;;;;;20.62;9.73;;;;;;;22.54;71.50;100474.46;1779811;80;20963;-50
2021/08/29 06:44:07;;;;;;;9.88;8.83;;;;;;;22.64;71.43;100470.26;1779859;79;21007;-47
2021/08/29 06:46:50;;;;;;;13.60;9.23;;;;;;;22.76;71.33;100455.83;1689924;83;20997;-50
2021/08/29 06:49:35;;;;;;;12.47;9.93;;;;;;;22.91;70.57;100449.48;1731871;81;21006;-51
2021/08/29 06:52:04;;;;;;;14.73;9.45;;;;;;;23.07;70.23;100445.27;1714657;80;20904;-48
2021/08/29 06:54:50;;;;;;;16.93;9.18;;;;;;;23.22;69.42;100443.33;1777977;79;20964;-52
2021/08/29 06:57:27;;;;;;;15.50;8.93;;;;;;;23.36;67.95;100438.40;1776778;79;20987;-48
2021/08/29 06:59:55;;;;;;;19.48;9.28;;;;;;;23.45;67.45;100439.98;1780023;80;21142;-48
2021/08/29 07:02:22;;;;;;;13.80;8.68;;;;;;;23.52;67.74;100440.75;1779900;80;20972;-51
2021/08/29 07:04:48;;;;;;;12.55;8.43;;;;;;;23.61;67.00;100440.56;1772021;80;21018;-47
2021/08/29 07:07:15;;;;;;;10.93;8.23;;;;;;;23.73;66.01;100435.30;1753616;80;20929;-48
2021/08/29 07:09:47;;;;;;;17.23;8.85;;;;;;;23.89;65.25;100438.98;1733036;81;20932;-47
2021/08/29 07:12:13;;;;;;;13.22;8.03;;;;;;;24.05;64.43;100429.45;1762206;79;21090;-49
2021/08/29 07:15:00;;;;;;;20.05;8.58;;;;;;;24.23;63.74;100428.02;1775888;79;20968;-49
2021/08/29 07:17:26;;;;;;;9.98;8.48;;;;;;;24.37;62.36;100428.28;1776742;79;21015;-48
2021/08/29 07:19:53;;;;;;;11.18;8.05;;;;;;;24.50;61.78;100435.28;1767303;80;20933;-50
2021/08/29 07:22:25;;;;;;;15.10;8.25;;;;;;;24.63;60.76;100429.41;1765192;80;20972;-48
2021/08/29 07:24:53;;;;;;;18.65;8.48;;;;;;;24.76;60.89;100423.16;1764812;80;21132;-50
2021/08/29 07:27:38;;;;;;;14.25;7.75;;;;;;;24.93;60.37;100422.67;1781331;80;20904;-50
2021/08/29 07:30:24;;;;;;;13.30;8.00;;;;;;;25.12;59.76;100423.81;1749360;80;21617;-48
2021/08/29 07:32:52;;;;;;;16.30;8.10;;;;;;;25.33;59.28;100423.90;1760074;79;21414;-48
2021/08/29 07:35:19;;;;;;;12.68;7.83;;;;;;;25.50;58.11;100426.52;1777852;80;20927;-48
2021/08/29 07:38:04;;;;;;;12.63;8.25;;;;;;;25.65;58.40;100422.25;1777758;80;21137;-51
2021/08/29 07:40:32;;;;;;;19.95;8.00;;;;;;;25.88;57.43;100422.97;1754197;80;20988;-47
2021/08/29 07:42:58;;;;;;;13.28;7.78;;;;;;;26.01;55.65;100415.29;1773459;80;20972;-48
2021/08/29 07:45:26;;;;;;;16.95;7.58;;;;;;;26.13;56.46;100420.04;1767369;80;20937;-48
2021/08/29 07:47:54;;;;;;;12.53;7.12;;;;;;;26.30;55.27;100422.12;1759082;80;21010;-49
2021/08/29 07:50:22;;;;;;;8.93;7.12;;;;;;;26.55;54.25;100425.31;1781355;80;21335;-49
2021/08/29 07:52:49;;;;;;;7.58;6.60;;;;;;;26.81;56.84;100424.84;1757216;81;21051;-50
2021/08/29 07:55:29;;;;;;;12.80;7.58;;;;;;;27.05;54.59;100422.35;1727414;80;20948;-49
2021/08/29 07:58:09;;;;;;;12.58;7.40;;;;;;;27.30;52.94;100415.70;1767102;80;22134;-49
2021/08/29 08:00:36;;;;;;;11.35;7.28;;;;;;;27.45;52.06;100421.91;1781939;80;21815;-51
2021/08/29 08:04:32;;;;;;;10.95;7.45;;;;;;;27.62;51.67;100415.93;1793579;79;23064;-50
2021/08/29 08:07:15;;;;;;;9.73;7.05;;;;;;;27.68;49.90;100414.53;1725663;83;20986;-50
2021/08/29 08:10:00;;;;;;;10.27;7.13;;;;;;;27.80;50.88;100412.06;1749587;81;21854;-50
2021/08/29 08:12:45;;;;;;;12.53;7.25;;;;;;;27.98;50.38;100410.01;1745804;81;21513;-50
2021/08/29 08:15:13;;;;;;;11.93;7.53;;;;;;;28.11;50.01;100405.20;1743510;81;21530;-50
2021/08/29 08:17:40;;;;;;;12.07;7.65;;;;;;;28.21;48.29;100404.38;1771219;80;21544;-50
2021/08/29 08:20:08;;;;;;;7.90;7.10;;;;;;;28.26;49.33;100402.12;1760510;80;20994;-51
2021/08/29 08:22:37;;;;;;;13.40;7.20;;;;;;;28.34;48.23;100392.91;1751539;80;21781;-49
2021/08/29 08:25:09;;;;;;;8.78;7.15;;;;;;;28.43;47.72;100390.38;1757118;80;21569;-47
2021/08/29 08:27:49;;;;;;;8.60;6.62;;;;;;;28.53;48.94;100387.98;1731089;80;21070;-48
2021/08/29 08:30:35;;;;;;;9.73;6.97;;;;;;;28.80;48.17;100381.51;1761292;80;20894;-51
2021/08/29 08:33:21;;;;;;;11.60;7.25;;;;;;;29.10;48.61;100388.80;1739158;80;20962;-51
2021/08/29 08:35:58;;;;;;;16.52;7.33;;;;;;;29.38;47.73;100376.73;1760397;80;21144;-49
2021/08/29 08:38:43;;;;;;;9.55;7.37;;;;;;;29.67;46.98;100368.51;1755080;81;21011;-48
2021/08/29 08:41:11;;;;;;;8.00;7.03;;;;;;;29.95;47.29;100360.34;1752464;81;21016;-49
2021/08/29 08:43:58;;;;;;;10.75;7.50;;;;;;;30.24;46.87;100358.38;1653231;85;21591;-48
2021/08/29 08:46:46;;;;;;;13.15;7.25;;;;;;;30.54;45.71;100358.81;1652372;85;20982;-47
2021/08/29 08:49:26;;;;;;;14.75;6.65;;;;;;;30.75;46.03;100349.05;1645323;80;21157;-49
2021/08/29 08:52:18;;;;;;;8.93;6.42;;;;;;;31.00;43.90;100349.61;1721422;80;20889;-48
2021/08/29 08:55:00;;;;;;;10.75;6.60;;;;;;;31.12;45.05;100346.94;1671524;82;21003;-50
2021/08/29 08:57:44;;;;;;;13.08;7.42;;;;;;;31.24;44.39;100342.98;1718094;81;21513;-49
2021/08/29 09:00:16;;;;;;;11.93;6.65;;;;;;;31.43;42.92;100340.12;1697083;83;21047;-49
2021/08/29 09:03:02;;;;;;;9.33;7.17;;;;;;;31.48;42.40;100336.44;1723744;82;21467;-52
2021/08/29 09:05:34;;;;;;;10.58;6.95;;;;;;;31.56;42.96;100332.41;1704217;83;21520;-49
2021/08/29 09:08:03;;;;;;;14.15;7.15;;;;;;;31.79;43.24;100326.38;1719645;81;20987;-51
2021/08/29 09:10:31;;;;;;;10.65;6.70;;;;;;;32.03;42.21;100320.62;1725905;81;20976;-50
2021/08/29 09:13:03;;;;;;;12.65;7.30;;;;;;;32.08;41.53;100311.08;1726110;80;22321;-51
2021/08/29 09:15:32;;;;;;;17.65;7.28;;;;;;;32.08;41.07;100308.41;1723103;82;21490;-50
2021/08/29 09:17:59;;;;;;;7.75;6.47;;;;;;;32.28;41.46;100307.98;1713804;83;21030;-47
2021/08/29 09:20:30;;;;;;;7.40;6.65;;;;;;;32.36;40.28;100306.62;1704341;83;21532;-52
2021/08/29 09:23:01;;;;;;;7.70;6.37;;;;;;;32.40;39.63;100307.12;1723803;82;21014;-50
2021/08/29 09:25:44;;;;;;;14.73;6.70;;;;;;;32.25;39.71;100308.34;1725021;81;21007;-48
2021/08/29 09:28:14;;;;;;;10.85;7.08;;;;;;;32.18;40.82;100306.01;1730660;81;21180;-48
2021/08/29 09:30:46;;;;;;;10.13;7.33;;;;;;;32.29;40.55;100292.74;1717686;82;20920;-52
2021/08/29 09:33:13;;;;;;;10.30;6.30;;;;;;;32.50;41.70;100302.37;1663817;85;21532;-48
2021/08/29 09:35:39;;;;;;;12.18;6.80;;;;;;;32.71;41.21;100297.38;1679871;85;21061;-51
2021/08/29 09:38:25;;;;;;;8.40;7.30;;;;;;;32.85;39.87;100300.64;1674970;84;27134;-50
2021/08/29 09:41:23;;;;;;;9.18;6.72;;;;;;;32.86;38.80;100298.28;1637654;85;21793;-51
2021/08/29 09:43:52;;;;;;;10.93;5.90;;;;;;;32.82;38.54;100291.62;1672098;83;21680;-51
2021/08/29 09:46:21;;;;;;;7.55;6.28;;;;;;;32.78;39.25;100285.77;1674770;84;21007;-48
2021/08/29 09:49:05;;;;;;;14.28;6.75;;;;;;;32.96;39.08;100285.49;1682206;83;20988;-48
2021/08/29 09:51:37;;;;;;;8.40;6.37;;;;;;;33.15;37.89;100288.70;1674176;84;20988;-48
2021/08/29 09:54:06;;;;;;;33.75;7.45;;;;;;;33.11;37.65;100287.39;1654262;85;21532;-48
2021/08/29 09:56:50;;;;;;;7.97;6.67;;;;;;;33.11;37.82;100284.72;1675500;85;20996;-50
2021/08/29 09:59:41;;;;;;;16.97;6.00;;;;;;;33.07;36.96;100286.09;1673849;85;21592;-49
2021/08/29 10:02:18;;;;;;;14.20;6.50;;;;;;;33.03;36.84;100287.48;1640617;85;20985;-51
2021/08/29 10:04:47;;;;;;;14.55;6.78;;;;;;;32.99;37.17;100288.86;1665202;85;20999;-47
2021/08/29 10:07:18;;;;;;;11.78;6.25;;;;;;;33.08;39.09;100286.42;1644903;85;21063;-50
2021/08/29 10:09:46;;;;;;;8.40;6.87;;;;;;;33.25;38.84;100281.25;1662596;84;21004;-49
2021/08/29 10:12:17;;;;;;;10.45;6.58;;;;;;;33.22;39.67;100286.12;1662461;84;21003;-51
2021/08/29 10:14:44;;;;;;;16.77;7.62;;;;;;;33.22;39.90;100281.61;1691097;82;21071;-48
2021/08/29 10:17:29;;;;;;;14.55;7.42;;;;;;;33.18;42.12;100280.28;1712663;82;20975;-49
2021/08/29 10:20:15;;;;;;;9.63;6.28;;;;;;;33.27;41.12;100281.05;1699270;83;21155;-50
2021/08/29 10:22:45;;;;;;;20.00;7.92;;;;;;;33.25;41.90;100276.38;1701984;82;20995;-47
2021/08/29 10:25:12;;;;;;;26.27;8.33;;;;;;;33.19;42.10;100269.89;1717854;82;21053;-48
2021/08/29 10:27:39;;;;;;;11.93;7.17;;;;;;;33.09;42.46;100281.39;1710217;82;21121;-49
2021/08/29 10:30:24;;;;;;;12.28;6.70;;;;;;;32.92;42.22;100274.81;1694827;82;20992;-54
2021/08/29 10:33:12;;;;;;;23.55;6.85;;;;;;;32.76;42.60;100270.91;1715877;82;22984;-49
2021/08/29 10:35:42;;;;;;;16.42;7.05;;;;;;;32.64;43.67;100271.31;1716032;82;21026;-52
2021/08/29 10:38:10;;;;;;;12.00;7.45;;;;;;;32.62;43.19;100276.02;1717122;82;21031;-51
2021/08/29 10:40:55;;;;;;;16.82;8.70;;;;;;;32.59;42.80;100275.03;1712998;82;21552;-51
2021/08/29 10:43:24;;;;;;;9.83;7.15;;;;;;;32.77;42.68;100274.73;1684560;82;21031;-49
2021/08/29 10:46:10;;;;;;;10.07;8.07;;;;;;;33.12;42.46;100270.82;1677570;82;21148;-49
2021/08/29 10:48:55;;;;;;;14.90;11.12;;;;;;;33.39;43.07;100270.22;1704324;82;21026;-50
2021/08/29 10:51:27;;;;;;;11.57;7.75;;;;;;;33.68;42.38;100264.56;1709432;82;20953;-50
2021/08/29 10:53:56;;;;;;;12.15;6.55;;;;;;;33.93;40.33;100263.42;1715978;82;22163;-51
2021/08/29 10:56:32;;;;;;;11.20;6.53;;;;;;;34.06;39.97;100262.30;1716318;82;20975;-48
2021/08/29 10:59:14;;;;;;;11.43;6.75;;;;;;;34.19;39.18;100262.11;1688124;83;21101;-51
2021/08/29 11:01:48;;;;;;;15.68;6.87;;;;;;;34.16;38.72;100267.86;1714195;82;20931;-48
2021/08/29 11:04:43;;;;;;;12.07;6.00;;;;;;;34.09;38.18;100267.77;1706889;82;20923;-47
2021/08/29 11:07:40;;;;;;;13.85;6.53;;;;;;;33.96;38.53;100259.05;1690316;82;21474;-48
2021/08/29 11:10:09;;;;;;;15.25;6.30;;;;;;;33.98;38.48;100259.72;1718458;82;21027;-50
2021/08/29 11:12:37;;;;;;;13.13;6.20;;;;;;;34.02;39.54;100254.30;1704317;82;21005;-50
2021/08/29 11:15:09;;;;;;;9.88;5.55;;;;;;;34.06;40.26;100259.61;1712481;82;21039;-48
2021/08/29 11:17:37;;;;;;;12.70;6.03;;;;;;;34.19;38.34;100255.40;1681561;84;20953;-51
2021/08/29 11:20:13;;;;;;;10.45;5.40;;;;;;;34.21;37.01;100254.70;1626581;87;21667;-48
2021/08/29 11:22:56;;;;;;;12.03;5.70;;;;;;;34.15;37.42;100249.59;1709665;82;21082;-51
2021/08/29 11:25:41;;;;;;;14.95;6.35;;;;;;;33.93;37.27;100250.85;1646608;82;21341;-50
2021/08/29 11:28:10;;;;;;;10.35;6.00;;;;;;;33.82;39.03;100255.34;1699727;82;21003;-50
2021/08/29 11:30:55;;;;;;;11.50;5.97;;;;;;;33.84;37.57;100253.30;1711178;82;22156;-48
2021/08/29 11:33:25;;;;;;;14.98;5.97;;;;;;;33.88;37.76;100257.80;1697715;82;21110;-52